ACA5522 KSEA-CYVR
Flight info
| Callsign | ACA5522 |
|---|---|
| Flight time | 0h 27m |
| Altitude | 16000 |
| Route | PAE GRIZZ9 |
| Aircraft | A321/M-SDE3FGHIRWY/LB1 |
Departure
| Time | 2026-05-03 20:35 |
|---|---|
| Airport | Seattle–Tacoma International Airport (KSEA) |
Arrival
| Time | 2026-05-03 21:03 |
|---|---|
| Airport | Vancouver International Airport (CYVR) |
| Time | Latitude | Longitude | Altitude | Speed | Heading |
|---|---|---|---|---|---|
| 2026-05-03 20:19 | 47.43963 | -122.30188 | 388 ft | 0 kts | 175° |
| 2026-05-03 20:28 | 47.43984 | -122.30188 | 388 ft | 4 kts | 201° |
| 2026-05-03 20:29 | 47.44005 | -122.30176 | 389 ft | 2 kts | 175° |
| 2026-05-03 20:29 | 47.44027 | -122.30174 | 389 ft | 4 kts | 214° |
| 2026-05-03 20:29 | 47.44037 | -122.30147 | 390 ft | 4 kts | 275° |
| 2026-05-03 20:29 | 47.44035 | -122.30123 | 390 ft | 0 kts | 281° |
| 2026-05-03 20:31 | 47.44043 | -122.30192 | 389 ft | 14 kts | 275° |
| 2026-05-03 20:32 | 47.44001 | -122.30346 | 387 ft | 15 kts | 251° |
| 2026-05-03 20:32 | 47.43989 | -122.30499 | 385 ft | 16 kts | 269° |
| 2026-05-03 20:32 | 47.43943 | -122.30614 | 383 ft | 15 kts | 189° |
| 2026-05-03 20:32 | 47.43832 | -122.30632 | 379 ft | 17 kts | 185° |
| 2026-05-03 20:33 | 47.43689 | -122.30639 | 374 ft | 26 kts | 179° |
| 2026-05-03 20:33 | 47.43516 | -122.30563 | 373 ft | 27 kts | 177° |
| 2026-05-03 20:33 | 47.43325 | -122.30565 | 363 ft | 28 kts | 183° |
| 2026-05-03 20:33 | 47.43178 | -122.30640 | 359 ft | 17 kts | 249° |
| 2026-05-03 20:34 | 47.43183 | -122.30782 | 358 ft | 9 kts | 295° |
| 2026-05-03 20:34 | 47.43231 | -122.30804 | 364 ft | 7 kts | 359° |
| 2026-05-03 20:34 | 47.43283 | -122.30803 | 365 ft | 11 kts | 0° |
| 2026-05-03 20:34 | 47.43534 | -122.30802 | 367 ft | 71 kts | 360° |
| 2026-05-03 20:35 | 47.44238 | -122.30802 | 392 ft | 128 kts | 0° |
| 2026-05-03 20:35 | 47.45276 | -122.30792 | 521 ft | 161 kts | 1° |
| 2026-05-03 20:35 | 47.46386 | -122.30787 | 1165 ft | 159 kts | 0° |
| 2026-05-03 20:35 | 47.47482 | -122.30776 | 1841 ft | 157 kts | 359° |
| 2026-05-03 20:36 | 47.48587 | -122.30741 | 2396 ft | 163 kts | 2° |
| 2026-05-03 20:36 | 47.49807 | -122.30662 | 2867 ft | 186 kts | 3° |
| 2026-05-03 20:36 | 47.51176 | -122.30556 | 3117 ft | 209 kts | 3° |
| 2026-05-03 20:36 | 47.52733 | -122.30436 | 3363 ft | 234 kts | 3° |
| 2026-05-03 20:37 | 47.54428 | -122.30312 | 3831 ft | 257 kts | 3° |
| 2026-05-03 20:37 | 47.56270 | -122.30184 | 4721 ft | 265 kts | 3° |
| 2026-05-03 20:37 | 47.58122 | -122.30057 | 5649 ft | 269 kts | 2° |
| 2026-05-03 20:37 | 47.60008 | -122.29928 | 6617 ft | 272 kts | 2° |
| 2026-05-03 20:38 | 47.61915 | -122.29798 | 7503 ft | 277 kts | 2° |
| 2026-05-03 20:38 | 47.63851 | -122.29667 | 8411 ft | 280 kts | 1° |
| 2026-05-03 20:38 | 47.65814 | -122.29537 | 9333 ft | 284 kts | 0° |
| 2026-05-03 20:38 | 47.67128 | -122.29452 | 9964 ft | 287 kts | 0° |
| 2026-05-03 20:39 | 47.69167 | -122.29320 | 10505 ft | 304 kts | 2° |
| 2026-05-03 20:39 | 47.71357 | -122.29179 | 10813 ft | 327 kts | 2° |
| 2026-05-03 20:39 | 47.73714 | -122.29022 | 11082 ft | 351 kts | 2° |
| 2026-05-03 20:39 | 47.76231 | -122.28849 | 11313 ft | 373 kts | 2° |
| 2026-05-03 20:40 | 47.78862 | -122.28669 | 11848 ft | 383 kts | 2° |
| 2026-05-03 20:40 | 47.81542 | -122.28488 | 12618 ft | 387 kts | 2° |
| 2026-05-03 20:40 | 47.84281 | -122.28304 | 13415 ft | 391 kts | 2° |
| 2026-05-03 20:40 | 47.87010 | -122.28118 | 14126 ft | 394 kts | 3° |
| 2026-05-03 20:41 | 47.89761 | -122.27929 | 14800 ft | 397 kts | 3° |
| 2026-05-03 20:41 | 47.92535 | -122.28004 | 15458 ft | 401 kts | 354° |
| 2026-05-03 20:41 | 47.95290 | -122.28705 | 15860 ft | 404 kts | 349° |
| 2026-05-03 20:41 | 47.98047 | -122.29507 | 15974 ft | 407 kts | 349° |
| 2026-05-03 20:42 | 48.00867 | -122.30330 | 16002 ft | 417 kts | 349° |
| 2026-05-03 20:42 | 48.03726 | -122.31165 | 15990 ft | 419 kts | 349° |
| 2026-05-03 20:42 | 48.06589 | -122.32000 | 15973 ft | 419 kts | 349° |
| 2026-05-03 20:42 | 48.09448 | -122.32833 | 15972 ft | 419 kts | 349° |
| 2026-05-03 20:43 | 48.12306 | -122.33662 | 15982 ft | 418 kts | 349° |
| 2026-05-03 20:43 | 48.15162 | -122.34489 | 15983 ft | 419 kts | 349° |
| 2026-05-03 20:43 | 48.18019 | -122.35317 | 15969 ft | 418 kts | 349° |
| 2026-05-03 20:43 | 48.20876 | -122.36147 | 15979 ft | 419 kts | 349° |
| 2026-05-03 20:44 | 48.23733 | -122.36978 | 15972 ft | 418 kts | 349° |
| 2026-05-03 20:44 | 48.26589 | -122.37808 | 15969 ft | 417 kts | 349° |
| 2026-05-03 20:44 | 48.29438 | -122.38640 | 15967 ft | 418 kts | 349° |
| 2026-05-03 20:44 | 48.32298 | -122.39476 | 15947 ft | 419 kts | 349° |
| 2026-05-03 20:45 | 48.35156 | -122.40313 | 15694 ft | 417 kts | 349° |
| 2026-05-03 20:45 | 48.37986 | -122.41145 | 15258 ft | 412 kts | 349° |
| 2026-05-03 20:45 | 48.40790 | -122.41970 | 14515 ft | 409 kts | 349° |
| 2026-05-03 20:45 | 48.43560 | -122.42784 | 13941 ft | 402 kts | 349° |
| 2026-05-03 20:46 | 48.46242 | -122.43573 | 13819 ft | 383 kts | 349° |
| 2026-05-03 20:46 | 48.48801 | -122.44329 | 13674 ft | 366 kts | 349° |
| 2026-05-03 20:46 | 48.51251 | -122.45053 | 13553 ft | 351 kts | 349° |
| 2026-05-03 20:46 | 48.53601 | -122.45747 | 13435 ft | 337 kts | 349° |
| 2026-05-03 20:47 | 48.55855 | -122.46412 | 13304 ft | 324 kts | 349° |
| 2026-05-03 20:47 | 48.58032 | -122.47054 | 13170 ft | 312 kts | 349° |
| 2026-05-03 20:47 | 48.60126 | -122.47671 | 13024 ft | 302 kts | 349° |
| 2026-05-03 20:47 | 48.62168 | -122.48273 | 12714 ft | 297 kts | 350° |
| 2026-05-03 20:48 | 48.64187 | -122.48870 | 12333 ft | 295 kts | 350° |
| 2026-05-03 20:48 | 48.66218 | -122.49472 | 12023 ft | 292 kts | 350° |
| 2026-05-03 20:48 | 48.68217 | -122.50090 | 11990 ft | 295 kts | 346° |
| 2026-05-03 20:48 | 48.70139 | -122.51191 | 11997 ft | 297 kts | 334° |
| 2026-05-03 20:49 | 48.71872 | -122.52895 | 11996 ft | 299 kts | 322° |
| 2026-05-03 20:49 | 48.73340 | -122.55124 | 11997 ft | 301 kts | 309° |
| 2026-05-03 20:49 | 48.74627 | -122.57649 | 12003 ft | 311 kts | 309° |
| 2026-05-03 20:49 | 48.76025 | -122.60376 | 12002 ft | 343 kts | 309° |
| 2026-05-03 20:50 | 48.77545 | -122.63314 | 11988 ft | 354 kts | 309° |
| 2026-05-03 20:50 | 48.79011 | -122.66174 | 11992 ft | 335 kts | 310° |
| 2026-05-03 20:50 | 48.80406 | -122.68907 | 11881 ft | 319 kts | 309° |
| 2026-05-03 20:50 | 48.81717 | -122.71483 | 11461 ft | 301 kts | 309° |
| 2026-05-03 20:51 | 48.82981 | -122.73968 | 10740 ft | 295 kts | 309° |
| 2026-05-03 20:51 | 48.84234 | -122.76427 | 9957 ft | 294 kts | 309° |
| 2026-05-03 20:51 | 48.85477 | -122.78866 | 9132 ft | 291 kts | 308° |
| 2026-05-03 20:51 | 48.86711 | -122.81284 | 8440 ft | 291 kts | 309° |
| 2026-05-03 20:52 | 48.87942 | -122.83699 | 8101 ft | 287 kts | 308° |
| 2026-05-03 20:52 | 48.89153 | -122.86081 | 7823 ft | 281 kts | 308° |
| 2026-05-03 20:52 | 48.90321 | -122.88387 | 7689 ft | 269 kts | 309° |
| 2026-05-03 20:52 | 48.91444 | -122.90605 | 7471 ft | 262 kts | 309° |
| 2026-05-03 20:53 | 48.92554 | -122.92795 | 7153 ft | 260 kts | 308° |
| 2026-05-03 20:53 | 48.93654 | -122.94972 | 6810 ft | 259 kts | 308° |
| 2026-05-03 20:53 | 48.94750 | -122.97144 | 6480 ft | 258 kts | 309° |
| 2026-05-03 20:53 | 48.96018 | -122.99026 | 6140 ft | 254 kts | 330° |
| 2026-05-03 20:54 | 48.97663 | -122.99848 | 5787 ft | 250 kts | 358° |
| 2026-05-03 20:54 | 49.00794 | -122.98061 | 5091 ft | 246 kts | 38° |
| 2026-05-03 20:54 | 49.02146 | -122.96470 | 4742 ft | 246 kts | 38° |
| 2026-05-03 20:55 | 49.03516 | -122.94864 | 4405 ft | 245 kts | 37° |
| 2026-05-03 20:55 | 49.04865 | -122.93289 | 4078 ft | 244 kts | 37° |
| 2026-05-03 20:55 | 49.06139 | -122.91607 | 3769 ft | 242 kts | 49° |
| 2026-05-03 20:55 | 49.07046 | -122.89451 | 3437 ft | 243 kts | 66° |
| 2026-05-03 20:56 | 49.07476 | -122.86975 | 3127 ft | 243 kts | 84° |
| 2026-05-03 20:56 | 49.07474 | -122.84395 | 2989 ft | 250 kts | 89° |
| 2026-05-03 20:56 | 49.07838 | -122.81751 | 2991 ft | 260 kts | 62° |
| 2026-05-03 20:56 | 49.08986 | -122.79712 | 2979 ft | 249 kts | 32° |
| 2026-05-03 20:57 | 49.10545 | -122.78886 | 2965 ft | 230 kts | 1° |
| 2026-05-03 20:57 | 49.12066 | -122.79435 | 2974 ft | 227 kts | 328° |
| 2026-05-03 20:57 | 49.13210 | -122.81107 | 2982 ft | 230 kts | 308° |
| 2026-05-03 20:57 | 49.14155 | -122.83082 | 2987 ft | 231 kts | 306° |
| 2026-05-03 20:58 | 49.15079 | -122.85092 | 2986 ft | 232 kts | 305° |
| 2026-05-03 20:58 | 49.16016 | -122.87097 | 3022 ft | 232 kts | 305° |
| 2026-05-03 20:58 | 49.16881 | -122.89147 | 2982 ft | 223 kts | 291° |
| 2026-05-03 20:58 | 49.17208 | -122.91356 | 2988 ft | 204 kts | 280° |
| 2026-05-03 20:59 | 49.17445 | -122.93434 | 2897 ft | 195 kts | 280° |
| 2026-05-03 20:59 | 49.17679 | -122.95452 | 2674 ft | 191 kts | 280° |
| 2026-05-03 20:59 | 49.17915 | -122.97482 | 2432 ft | 195 kts | 280° |
| 2026-05-03 20:59 | 49.18152 | -122.99520 | 2177 ft | 193 kts | 280° |
| 2026-05-03 21:00 | 49.18380 | -123.01492 | 1919 ft | 183 kts | 279° |
| 2026-05-03 21:00 | 49.18455 | -123.02133 | 1854 ft | 180 kts | 279° |
| 2026-05-03 21:00 | 49.18805 | -123.05156 | 1484 ft | 165 kts | 279° |
| 2026-05-03 21:00 | 49.19004 | -123.06878 | 1266 ft | 163 kts | 279° |
| 2026-05-03 21:01 | 49.19197 | -123.08556 | 1044 ft | 158 kts | 279° |
| 2026-05-03 21:01 | 49.19383 | -123.10172 | 830 ft | 148 kts | 280° |
| 2026-05-03 21:01 | 49.19554 | -123.11664 | 617 ft | 138 kts | 281° |
| 2026-05-03 21:01 | 49.19718 | -123.13093 | 433 ft | 132 kts | 281° |
| 2026-05-03 21:02 | 49.19878 | -123.14428 | 249 ft | 128 kts | 282° |
| 2026-05-03 21:02 | 49.20026 | -123.15775 | 81 ft | 126 kts | 281° |
| 2026-05-03 21:02 | 49.20178 | -123.17047 | 28 ft | 112 kts | 282° |
| 2026-05-03 21:02 | 49.20272 | -123.17960 | 21 ft | 60 kts | 279° |
| 2026-05-03 21:03 | 49.20310 | -123.18399 | 24 ft | 32 kts | 262° |
| 2026-05-03 21:03 | 49.20261 | -123.18653 | 24 ft | 16 kts | 248° |
| 2026-05-03 21:03 | 49.20236 | -123.18743 | 23 ft | 3 kts | 247° |
| 2026-05-03 21:03 | 49.20235 | -123.18747 | 23 ft | 0 kts | 247° |
| 2026-05-03 21:05 | 49.20234 | -123.18750 | 23 ft | 2 kts | 247° |
| 2026-05-03 21:06 | 49.20196 | -123.18855 | 25 ft | 12 kts | 205° |
| 2026-05-03 21:06 | 49.20150 | -123.18761 | 23 ft | 14 kts | 100° |
| 2026-05-03 21:06 | 49.20129 | -123.18568 | 23 ft | 15 kts | 100° |
| 2026-05-03 21:06 | 49.20051 | -123.18471 | 24 ft | 17 kts | 126° |
| 2026-05-03 21:07 | 49.20026 | -123.18295 | 25 ft | 12 kts | 100° |
| 2026-05-03 21:07 | 49.19992 | -123.18272 | 23 ft | 6 kts | 175° |
| 2026-05-03 21:07 | 49.19956 | -123.18281 | 23 ft | 2 kts | 191° |
| 2026-05-03 21:07 | 49.19945 | -123.18284 | 23 ft | 0 kts | 189° |